createdAt,value
2023-07-11T00:00:21.460Z,19.10
2023-07-11T00:04:24.312Z,19.00
2023-07-11T00:08:27.195Z,18.90
2023-07-11T00:12:30.317Z,18.90
2023-07-11T00:16:35.324Z,18.80
2023-07-11T00:20:38.198Z,18.80
2023-07-11T00:24:41.033Z,18.80
2023-07-11T00:28:43.876Z,18.70
2023-07-11T00:32:48.175Z,18.70
2023-07-11T00:36:51.091Z,18.60
2023-07-11T00:40:53.918Z,18.60
2023-07-11T00:44:57.909Z,18.50
2023-07-11T00:49:03.551Z,18.50
2023-07-11T00:53:06.407Z,18.50
2023-07-11T00:57:11.217Z,18.40
2023-07-11T01:01:14.820Z,18.40
2023-07-11T01:05:19.114Z,18.40
2023-07-11T01:09:22.072Z,18.30
2023-07-11T01:13:24.922Z,18.30
2023-07-11T01:17:30.024Z,18.20
2023-07-11T01:21:34.361Z,18.20
2023-07-11T01:25:37.384Z,18.10
2023-07-11T01:29:42.823Z,18.10
2023-07-11T01:33:45.676Z,18.10
2023-07-11T01:37:49.859Z,17.90
2023-07-11T01:41:52.806Z,17.90
2023-07-11T01:45:55.681Z,17.90
2023-07-11T01:49:58.543Z,17.80
2023-07-11T01:54:02.770Z,17.80
2023-07-11T01:58:05.705Z,17.80
2023-07-11T02:02:09.438Z,17.70
2023-07-11T02:06:12.304Z,17.70
2023-07-11T02:10:16.686Z,17.70
2023-07-11T02:14:20.842Z,17.60
2023-07-11T02:18:23.816Z,17.60
2023-07-11T02:22:26.723Z,17.50
2023-07-11T02:26:30.951Z,17.50
2023-07-11T02:30:34.234Z,17.50
2023-07-11T02:34:37.080Z,17.40
2023-07-11T02:38:39.947Z,17.40
2023-07-11T02:42:44.134Z,17.30
2023-07-11T02:46:46.987Z,17.30
2023-07-11T02:50:49.830Z,17.30
2023-07-11T02:54:53.763Z,17.30
2023-07-11T02:59:01.375Z,17.20
2023-07-11T03:03:05.020Z,17.20
2023-07-11T03:07:08.037Z,17.20
2023-07-11T03:11:10.909Z,17.10
2023-07-11T03:15:15.105Z,17.10
2023-07-11T03:19:17.948Z,17.10
2023-07-11T03:23:22.119Z,17.10
2023-07-11T03:27:24.998Z,17.00
2023-07-11T03:31:29.305Z,17.00
2023-07-11T03:35:32.462Z,17.00
2023-07-11T03:39:35.292Z,17.00
2023-07-11T03:43:38.188Z,17.00
2023-07-11T03:47:42.421Z,17.00
2023-07-11T03:51:46.107Z,17.00
2023-07-11T03:55:49.050Z,17.00
2023-07-11T03:59:51.917Z,17.00
2023-07-11T04:03:56.208Z,17.00
2023-07-11T04:07:59.137Z,17.00
2023-07-11T04:12:02.209Z,17.00
2023-07-11T04:16:05.429Z,17.00
2023-07-11T04:20:11.061Z,17.10
2023-07-11T04:24:13.891Z,17.10
2023-07-11T04:28:18.355Z,17.10
2023-07-11T04:32:21.297Z,17.10
2023-07-11T04:36:25.734Z,17.20
2023-07-11T04:40:28.778Z,17.20
2023-07-11T04:44:31.614Z,17.20
2023-07-11T04:48:35.046Z,17.30
2023-07-11T04:52:39.308Z,17.30
2023-07-11T04:56:42.365Z,17.40
2023-07-11T05:00:45.215Z,17.50
2023-07-11T05:04:48.035Z,17.50
2023-07-11T05:08:52.304Z,17.70
2023-07-11T05:12:55.192Z,17.70
2023-07-11T05:17:04.296Z,17.80
2023-07-11T05:21:07.256Z,17.90
2023-07-11T05:25:11.692Z,18.00
2023-07-11T05:29:14.681Z,18.10
2023-07-11T05:33:18.564Z,18.20
2023-07-11T05:37:21.440Z,18.30
2023-07-11T05:41:25.667Z,18.40
2023-07-11T05:45:28.510Z,18.60
2023-07-11T05:49:31.625Z,18.70
2023-07-11T05:53:34.493Z,18.80
2023-07-11T05:57:38.686Z,19.00
2023-07-11T06:01:41.898Z,19.10
2023-07-11T06:05:44.787Z,19.30
2023-07-11T06:09:47.905Z,19.50
2023-07-11T06:13:52.209Z,19.60
2023-07-11T06:17:55.185Z,19.80
2023-07-11T06:21:58.138Z,20.00
2023-07-11T06:26:01.019Z,20.10
2023-07-11T06:30:05.826Z,20.30
2023-07-11T06:34:08.699Z,20.50
2023-07-11T06:38:11.554Z,20.60
2023-07-11T06:42:14.484Z,20.80
2023-07-11T06:46:19.633Z,21.00
2023-07-11T06:50:24.053Z,21.10
2023-07-11T06:54:27.635Z,21.40
2023-07-11T06:58:30.610Z,21.50
2023-07-11T07:02:35.113Z,21.60
2023-07-11T07:06:38.178Z,21.80
2023-07-11T07:10:41.044Z,21.90
2023-07-11T07:14:44.045Z,22.10
2023-07-11T07:18:48.289Z,22.30
2023-07-11T07:22:51.289Z,22.50
2023-07-11T07:26:55.128Z,22.60
2023-07-11T07:31:02.366Z,22.70
2023-07-11T07:35:07.276Z,22.80
2023-07-11T07:39:10.122Z,23.00
2023-07-11T07:43:13.038Z,23.10
2023-07-11T07:47:15.967Z,23.20
2023-07-11T07:51:20.841Z,23.30
2023-07-11T07:55:23.732Z,23.50
2023-07-11T07:59:26.561Z,23.60
2023-07-11T08:03:29.441Z,23.80
2023-07-11T08:07:33.719Z,24.00
2023-07-11T08:11:36.623Z,24.10
2023-07-11T08:15:39.466Z,24.30
2023-07-11T08:19:42.318Z,24.50
2023-07-11T08:23:49.499Z,24.70
2023-07-11T08:27:52.513Z,24.70
2023-07-11T08:31:57.021Z,24.80
2023-07-11T08:36:00.337Z,25.00
2023-07-11T08:40:05.135Z,25.10
2023-07-11T08:44:11.080Z,25.30
2023-07-11T08:48:17.109Z,25.50
2023-07-11T08:56:30.453Z,25.80
2023-07-11T09:00:34.528Z,25.90
2023-07-11T09:04:39.336Z,26.00
2023-07-11T09:08:44.541Z,26.20
2023-07-11T09:12:57.837Z,26.30
2023-07-11T09:17:11.523Z,26.40
2023-07-11T09:21:16.076Z,26.60
2023-07-11T09:25:20.918Z,26.80
2023-07-11T09:29:25.169Z,26.90
2023-07-11T09:33:29.859Z,27.10
2023-07-11T09:37:34.927Z,27.20
2023-07-11T09:41:50.412Z,27.40
2023-07-11T09:45:55.201Z,27.60
2023-07-11T09:49:58.330Z,27.70
2023-07-11T09:54:01.600Z,27.90
2023-07-11T10:02:16.756Z,28.30
2023-07-11T10:10:52.729Z,28.70
2023-07-11T10:14:56.414Z,28.90
2023-07-11T10:19:00.649Z,29.10
2023-07-11T10:23:04.311Z,29.30
2023-07-11T10:27:12.071Z,29.50
2023-07-11T10:31:26.653Z,29.60
2023-07-11T10:35:31.392Z,29.80
2023-07-11T10:39:38.690Z,29.90
2023-07-11T10:43:41.620Z,30.00
2023-07-11T10:47:50.239Z,30.20
2023-07-11T10:51:58.246Z,30.40
2023-07-11T10:56:03.992Z,30.70
2023-07-11T11:00:10.049Z,31.00
2023-07-11T13:06:40.258Z,33.00
2023-07-11T13:10:43.809Z,33.10
2023-07-11T13:14:48.688Z,33.20
2023-07-11T13:18:52.335Z,33.30
2023-07-11T13:22:56.890Z,33.40
2023-07-11T13:27:04.657Z,33.50
2023-07-11T13:31:08.629Z,33.60
2023-07-11T13:35:22.414Z,33.50
2023-07-11T13:51:46.171Z,33.70
2023-07-11T13:55:51.939Z,33.80
2023-07-11T14:00:12.298Z,33.70
2023-07-11T14:04:18.046Z,33.70
2023-07-11T14:08:22.678Z,33.70
2023-07-11T14:12:25.663Z,33.70
2023-07-11T14:16:28.590Z,33.70
2023-07-11T14:20:31.600Z,33.70
2023-07-11T14:24:35.808Z,33.70
2023-07-11T14:28:38.668Z,33.80
2023-07-11T14:32:42.054Z,33.80
2023-07-11T14:36:44.917Z,33.90
2023-07-11T14:40:49.443Z,33.90
2023-07-11T14:44:52.383Z,33.90
2023-07-11T14:48:55.491Z,33.90
2023-07-11T14:52:58.952Z,33.90
2023-07-11T14:57:16.312Z,33.90
2023-07-11T15:01:26.234Z,33.80
2023-07-11T15:17:51.494Z,33.90
2023-07-11T15:21:57.472Z,33.90
2023-07-11T15:26:00.347Z,33.90
2023-07-11T15:30:04.976Z,33.90
2023-07-11T15:34:12.441Z,33.90
2023-07-11T15:38:18.218Z,34.00
2023-07-11T15:42:28.107Z,33.90
2023-07-11T15:46:35.628Z,33.90
2023-07-11T15:50:38.496Z,33.90
2023-07-11T15:54:41.566Z,34.10
2023-07-11T15:58:49.295Z,34.10
2023-07-11T16:02:55.709Z,34.20
2023-07-11T16:59:47.644Z,34.80
2023-07-11T17:03:50.618Z,34.80
2023-07-11T17:07:53.816Z,34.70
2023-07-11T17:11:56.669Z,34.50
2023-07-11T17:16:05.466Z,34.40
2023-07-11T17:20:12.266Z,34.20
2023-07-11T17:24:21.403Z,34.10
2023-07-11T17:28:27.566Z,34.00
2023-07-11T17:32:31.927Z,33.80
2023-07-11T17:36:34.847Z,33.70
2023-07-11T17:40:37.733Z,33.60
2023-07-11T17:44:42.992Z,33.40
2023-07-11T17:48:47.641Z,33.30
2023-07-11T17:52:50.936Z,33.00
2023-07-11T17:56:59.222Z,32.90
2023-07-11T18:01:02.641Z,32.80
2023-07-11T18:05:07.273Z,32.60
2023-07-11T18:09:11.389Z,32.50
2023-07-11T18:13:15.776Z,32.40
2023-07-11T18:17:19.886Z,32.30
2023-07-11T18:21:24.163Z,32.10
2023-07-11T18:25:27.187Z,31.90
2023-07-11T18:29:33.163Z,31.80
2023-07-11T18:33:36.075Z,31.70
2023-07-11T18:37:40.890Z,31.50
2023-07-11T18:41:43.731Z,31.30
2023-07-11T18:45:47.625Z,31.20
2023-07-11T18:49:51.787Z,31.00
2023-07-11T18:53:56.023Z,30.90
2023-07-11T18:57:59.827Z,30.70
2023-07-11T19:02:02.849Z,30.50
2023-07-11T19:06:12.920Z,30.40
2023-07-11T19:10:19.855Z,30.10
2023-07-11T19:14:22.728Z,30.00
2023-07-11T19:18:26.487Z,29.90
2023-07-11T19:22:31.013Z,29.70
2023-07-11T19:26:35.546Z,29.50
2023-07-11T19:30:39.391Z,29.40
2023-07-11T19:34:42.726Z,29.20
2023-07-11T19:38:46.325Z,29.00
2023-07-11T19:42:50.978Z,28.90
2023-07-11T19:46:54.322Z,28.70
2023-07-11T19:50:58.274Z,28.60
2023-07-11T19:55:03.698Z,28.40
2023-07-11T19:59:07.931Z,28.20
2023-07-11T20:03:13.474Z,28.00
2023-07-11T20:07:17.156Z,27.90
2023-07-11T20:11:20.076Z,27.80
2023-07-11T20:15:24.282Z,27.60
2023-07-11T20:19:27.173Z,27.40
2023-07-11T20:23:30.414Z,27.30
2023-07-11T20:27:33.261Z,27.20
2023-07-11T20:31:37.556Z,27.00
2023-07-11T20:35:41.139Z,26.90
2023-07-11T20:39:44.413Z,26.70
2023-07-11T20:43:47.774Z,26.60
2023-07-11T20:47:52.280Z,26.60
2023-07-11T20:51:55.171Z,26.40
2023-07-11T20:55:58.082Z,26.30
2023-07-11T21:00:00.950Z,26.20
2023-07-11T21:04:05.383Z,26.10
2023-07-11T21:08:19.390Z,26.00
2023-07-11T21:12:23.433Z,25.80
2023-07-11T21:16:33.781Z,25.70
2023-07-11T21:20:39.543Z,25.70
2023-07-11T21:24:42.788Z,25.60
2023-07-11T21:28:45.811Z,25.50
2023-07-11T21:32:49.364Z,25.40
2023-07-11T21:36:54.265Z,25.40
2023-07-11T21:40:58.833Z,25.30
2023-07-11T21:45:01.732Z,25.30
2023-07-11T21:49:04.608Z,25.20
2023-07-11T21:53:10.722Z,25.10
2023-07-11T21:57:15.428Z,25.10
2023-07-11T22:01:18.295Z,25.00
2023-07-11T22:05:21.251Z,24.90
2023-07-11T22:09:25.507Z,24.90
2023-07-11T22:13:28.905Z,24.80
2023-07-11T22:21:35.047Z,24.60
2023-07-11T22:25:39.799Z,24.60
2023-07-11T22:29:43.824Z,24.50
2023-07-11T22:33:47.051Z,24.50
2023-07-11T22:37:50.034Z,24.40
2023-07-11T22:41:54.396Z,24.30
2023-07-11T22:45:58.252Z,24.30
2023-07-11T22:50:01.113Z,24.20
2023-07-11T22:54:04.277Z,24.10
2023-07-11T22:58:17.029Z,24.10
2023-07-11T23:02:19.851Z,24.00
2023-07-11T23:06:24.480Z,23.90
2023-07-11T23:10:28.832Z,23.80
2023-07-11T23:14:33.091Z,23.80
2023-07-11T23:18:36.189Z,23.70
2023-07-11T23:22:39.456Z,23.60
2023-07-11T23:26:42.285Z,23.50
2023-07-11T23:30:46.498Z,23.50
2023-07-11T23:34:49.352Z,23.40
2023-07-11T23:38:53.352Z,23.30
2023-07-11T23:42:56.215Z,23.30
2023-07-11T23:47:00.461Z,23.20
2023-07-11T23:51:03.678Z,23.10
2023-07-11T23:55:06.979Z,23.20
2023-07-11T23:59:10.727Z,23.10
